Time;durP1;ratioP1;P1;durP2;ratioP2;P2;SDS_P1;SDS_P2;PMS_P1;PMS_P2;Temp;Humidity;BMP_temperature;BMP_pressure;BME280_temperature;BME280_humidity;BME280_pressure;Samples;Min_cycle;Max_cycle;Signal;HPM_P1;HPM_P2
2022/08/18 00:00:04;;;;;;;3.30;0.82;;;;;;;;;;1023640;29;20139;-75
2022/08/18 00:00:34;;;;;;;3.20;0.88;;;;;;;;;;1023790;29;20187;-75
2022/08/18 00:01:05;;;;;;;4.50;1.25;;;;;;;;;;1023593;29;20559;-75
2022/08/18 00:01:35;;;;;;;8.60;1.45;;;;;;;;;;1024105;28;20468;-76
2022/08/18 00:02:23;;;;;;;5.60;1.73;;;;;;;;;;1027878;28;20045;-76
2022/08/18 00:02:55;;;;;;;9.73;1.35;;;;;;;;;;1028094;28;20031;-75
2022/08/18 00:03:27;;;;;;;15.73;2.17;;;;;;;;;;1023601;29;20110;-75
2022/08/18 00:03:59;;;;;;;18.83;1.52;;;;;;;;;;1023669;29;20030;-75
2022/08/18 00:04:30;;;;;;;8.02;2.50;;;;;;;;;;1023741;29;20027;-75
2022/08/18 00:05:00;;;;;;;9.15;1.00;;;;;;;;;;1028830;28;20036;-75
2022/08/18 00:05:31;;;;;;;2.42;1.13;;;;;;;;;;1036070;28;20498;-75
2022/08/18 00:06:01;;;;;;;11.43;0.93;;;;;;;;;;1036039;28;20033;-76
2022/08/18 00:06:32;;;;;;;8.82;1.48;;;;;;;;;;1036092;28;20060;-76
2022/08/18 00:07:07;;;;;;;7.95;1.90;;;;;;;;;;1031482;28;20037;-76
2022/08/18 00:07:38;;;;;;;6.78;1.83;;;;;;;;;;1031625;28;20524;-76
2022/08/18 00:08:09;;;;;;;6.75;1.48;;;;;;;;;;1031696;28;20045;-75
2022/08/18 00:08:39;;;;;;;6.15;1.88;;;;;;;;;;1030909;28;20026;-75
2022/08/18 00:09:10;;;;;;;6.25;1.50;;;;;;;;;;1031926;28;20557;-76
2022/08/18 00:09:41;;;;;;;5.00;1.15;;;;;;;;;;1032073;28;20030;-76
2022/08/18 00:10:12;;;;;;;4.47;1.08;;;;;;;;;;1031958;28;20504;-76
2022/08/18 00:10:42;;;;;;;14.75;1.90;;;;;;;;;;1032045;28;20063;-76
2022/08/18 00:11:13;;;;;;;4.25;1.23;;;;;;;;;;1031947;28;20088;-75
2022/08/18 00:11:44;;;;;;;4.15;1.65;;;;;;;;;;1031919;28;20022;-75
2022/08/18 00:12:35;;;;;;;15.27;1.13;;;;;;;;;;1027475;28;20437;-75
2022/08/18 00:13:05;;;;;;;11.65;1.42;;;;;;;;;;1026940;28;20509;-75
2022/08/18 00:13:36;;;;;;;3.05;1.00;;;;;;;;;;1027798;28;20046;-75
2022/08/18 00:14:08;;;;;;;11.25;0.95;;;;;;;;;;1030436;28;20029;-75
2022/08/18 00:14:39;;;;;;;2.05;0.98;;;;;;;;;;1032026;28;20034;-75
2022/08/18 00:15:11;;;;;;;11.93;1.88;;;;;;;;;;1027507;28;20031;-75
2022/08/18 00:15:42;;;;;;;14.10;1.10;;;;;;;;;;1027622;28;20035;-75
2022/08/18 00:16:12;;;;;;;1.48;0.85;;;;;;;;;;1027474;28;20027;-75
2022/08/18 00:16:43;;;;;;;5.60;0.90;;;;;;;;;;1027758;28;20026;-76
2022/08/18 00:17:14;;;;;;;2.08;1.38;;;;;;;;;;1027584;28;20426;-76
2022/08/18 00:17:45;;;;;;;3.90;0.90;;;;;;;;;;1027597;28;20027;-76
2022/08/18 00:18:15;;;;;;;4.43;0.82;;;;;;;;;;1027611;28;20110;-76
2022/08/18 00:18:46;;;;;;;6.13;0.85;;;;;;;;;;1027784;28;20363;-76
2022/08/18 00:19:17;;;;;;;6.28;1.42;;;;;;;;;;1027733;28;20022;-75
2022/08/18 00:19:47;;;;;;;3.03;0.60;;;;;;;;;;1032163;28;20465;-76
2022/08/18 00:20:19;;;;;;;7.50;1.42;;;;;;;;;;1027473;28;20023;-76
2022/08/18 00:20:50;;;;;;;1.50;0.65;;;;;;;;;;1027845;28;20027;-76
2022/08/18 00:21:21;;;;;;;2.95;0.75;;;;;;;;;;1027580;28;20434;-76
2022/08/18 00:21:51;;;;;;;2.05;0.75;;;;;;;;;;1028068;28;20030;-76
2022/08/18 00:22:22;;;;;;;3.42;0.90;;;;;;;;;;1029043;28;20042;-76
2022/08/18 00:22:55;;;;;;;5.25;1.05;;;;;;;;;;1028105;28;20045;-76
2022/08/18 00:23:27;;;;;;;2.33;1.30;;;;;;;;;;1023577;29;20416;-76
2022/08/18 00:23:58;;;;;;;4.97;1.20;;;;;;;;;;1023539;29;20027;-76
2022/08/18 00:24:29;;;;;;;7.40;1.08;;;;;;;;;;1023725;29;20031;-76
2022/08/18 00:25:00;;;;;;;13.48;0.88;;;;;;;;;;1023577;29;20431;-76
2022/08/18 00:25:31;;;;;;;5.93;1.02;;;;;;;;;;1024004;28;20023;-76
2022/08/18 00:26:03;;;;;;;10.27;0.98;;;;;;;;;;1027920;28;20482;-75
2022/08/18 00:26:33;;;;;;;3.65;1.65;;;;;;;;;;1027999;28;20034;-75
2022/08/18 00:27:05;;;;;;;3.28;1.50;;;;;;;;;;1027778;28;20101;-76
2022/08/18 00:27:37;;;;;;;4.30;0.75;;;;;;;;;;1023499;29;20545;-76
2022/08/18 00:28:07;;;;;;;5.00;1.42;;;;;;;;;;1023497;29;20039;-76
2022/08/18 00:28:38;;;;;;;2.55;0.95;;;;;;;;;;1023637;29;20093;-76
2022/08/18 00:29:08;;;;;;;2.40;0.60;;;;;;;;;;1023589;29;20034;-76
2022/08/18 00:29:39;;;;;;;9.70;1.02;;;;;;;;;;1024217;28;20507;-76
2022/08/18 00:30:12;;;;;;;2.83;0.73;;;;;;;;;;1024345;29;20234;-76
2022/08/18 00:30:42;;;;;;;2.47;0.93;;;;;;;;;;1024468;29;20564;-75
2022/08/18 00:31:13;;;;;;;2.50;1.25;;;;;;;;;;1024347;29;20129;-75
2022/08/18 00:31:43;;;;;;;3.67;0.60;;;;;;;;;;1024473;29;20113;-76
2022/08/18 00:32:19;;;;;;;5.85;0.90;;;;;;;;;;1024447;28;20019;-76
2022/08/18 00:32:51;;;;;;;14.77;1.10;;;;;;;;;;1028940;28;20023;-75
2022/08/18 00:33:22;;;;;;;7.50;0.70;;;;;;;;;;1028552;28;20030;-75
2022/08/18 00:33:52;;;;;;;6.82;0.70;;;;;;;;;;1028806;28;20030;-75
2022/08/18 00:34:23;;;;;;;15.98;1.00;;;;;;;;;;1028539;28;20479;-75
2022/08/18 00:34:54;;;;;;;1.98;0.90;;;;;;;;;;1024366;29;20035;-75
2022/08/18 00:35:27;;;;;;;8.02;1.70;;;;;;;;;;1024395;29;20595;-76
2022/08/18 00:35:58;;;;;;;4.10;0.80;;;;;;;;;;1021029;29;20516;-76
2022/08/18 00:36:30;;;;;;;7.55;1.00;;;;;;;;;;1021021;29;20027;-75
2022/08/18 00:37:01;;;;;;;6.55;1.08;;;;;;;;;;1020339;29;20023;-75
2022/08/18 00:37:32;;;;;;;3.25;1.20;;;;;;;;;;1020639;29;20396;-76
2022/08/18 00:38:03;;;;;;;2.17;0.90;;;;;;;;;;1024443;29;20035;-75
2022/08/18 00:38:34;;;;;;;4.40;0.95;;;;;;;;;;1020776;29;20027;-75
2022/08/18 00:39:04;;;;;;;2.95;1.02;;;;;;;;;;1024526;29;20479;-75
2022/08/18 00:39:35;;;;;;;4.25;1.17;;;;;;;;;;1024576;29;20400;-76
2022/08/18 00:40:07;;;;;;;1.90;1.23;;;;;;;;;;1024600;28;20062;-76
2022/08/18 00:40:39;;;;;;;10.50;1.50;;;;;;;;;;1028695;28;20069;-76
2022/08/18 00:41:09;;;;;;;1.73;0.77;;;;;;;;;;1028654;28;20026;-76
2022/08/18 00:41:40;;;;;;;6.65;1.50;;;;;;;;;;1028802;28;20078;-76
2022/08/18 00:42:15;;;;;;;6.80;1.27;;;;;;;;;;1028573;28;20031;-76
2022/08/18 00:42:47;;;;;;;2.83;0.98;;;;;;;;;;1028718;28;20058;-76
2022/08/18 00:43:23;;;;;;;4.95;1.00;;;;;;;;;;1028549;28;20034;-76
2022/08/18 00:43:55;;;;;;;4.22;0.82;;;;;;;;;;1024482;29;20042;-76
2022/08/18 00:44:25;;;;;;;1.13;0.47;;;;;;;;;;1024379;29;20035;-76
2022/08/18 00:44:57;;;;;;;7.85;1.13;;;;;;;;;;1020423;29;20440;-76
2022/08/18 00:45:31;;;;;;;7.47;2.42;;;;;;;;;;1020708;29;20073;-76
2022/08/18 00:46:05;;;;;;;8.20;1.25;;;;;;;;;;1020326;29;20126;-76
2022/08/18 00:46:36;;;;;;;1.85;1.60;;;;;;;;;;1021667;29;20031;-76
2022/08/18 00:47:06;;;;;;;5.18;1.80;;;;;;;;;;1019091;29;20023;-76
2022/08/18 00:47:37;;;;;;;9.57;0.95;;;;;;;;;;1020302;29;20100;-76
2022/08/18 00:48:09;;;;;;;9.45;1.08;;;;;;;;;;1020443;29;20036;-76
2022/08/18 00:48:40;;;;;;;5.10;1.45;;;;;;;;;;1020790;29;20054;-76
2022/08/18 00:49:10;;;;;;;4.45;1.60;;;;;;;;;;1024541;28;20058;-76
2022/08/18 00:49:42;;;;;;;8.25;0.82;;;;;;;;;;1024332;29;20126;-76
2022/08/18 00:50:25;;;;;;;16.75;1.75;;;;;;;;;;1024171;29;20031;-76
2022/08/18 00:51:01;;;;;;;4.65;1.30;;;;;;;;;;1026405;28;20483;-76
2022/08/18 00:51:35;;;;;;;5.15;1.58;;;;;;;;;;1028370;28;20062;-76
2022/08/18 00:52:07;;;;;;;5.97;1.25;;;;;;;;;;1028250;28;20117;-75
2022/08/18 00:52:38;;;;;;;9.50;1.02;;;;;;;;;;1029768;28;20034;-75
2022/08/18 00:53:14;;;;;;;6.97;1.65;;;;;;;;;;1028094;28;20039;-75
2022/08/18 00:53:55;;;;;;;7.85;1.52;;;;;;;;;;1028303;28;20618;-76
2022/08/18 00:54:30;;;;;;;3.75;1.13;;;;;;;;;;1024175;29;20085;-76
2022/08/18 00:55:02;;;;;;;2.17;0.98;;;;;;;;;;1023177;29;20075;-76
2022/08/18 00:55:33;;;;;;;6.78;1.88;;;;;;;;;;1024168;28;20118;-76
2022/08/18 00:56:07;;;;;;;4.55;1.35;;;;;;;;;;1024353;29;20404;-76
2022/08/18 00:56:41;;;;;;;4.00;1.10;;;;;;;;;;1025101;28;20027;-76
2022/08/18 00:57:12;;;;;;;3.75;0.93;;;;;;;;;;1028146;28;20030;-76
2022/08/18 00:57:43;;;;;;;2.85;1.10;;;;;;;;;;1028606;28;20509;-76
2022/08/18 00:58:20;;;;;;;11.65;1.52;;;;;;;;;;1028491;28;20026;-76
2022/08/18 00:58:51;;;;;;;14.60;1.50;;;;;;;;;;1028653;28;20050;-76
2022/08/18 00:59:21;;;;;;;9.20;0.95;;;;;;;;;;1028438;28;20027;-76
2022/08/18 00:59:55;;;;;;;4.50;1.58;;;;;;;;;;1028770;28;20130;-76
2022/08/18 01:00:25;;;;;;;12.18;1.77;;;;;;;;;;1028562;28;20026;-76
2022/08/18 01:00:56;;;;;;;5.43;1.58;;;;;;;;;;1024266;29;20114;-75
2022/08/18 01:01:29;;;;;;;5.00;1.50;;;;;;;;;;1023991;29;20035;-75
2022/08/18 01:02:02;;;;;;;35.15;2.83;;;;;;;;;;1022322;28;20602;-76
2022/08/18 01:02:35;;;;;;;12.50;1.65;;;;;;;;;;1024204;28;20081;-76
2022/08/18 01:03:09;;;;;;;12.40;4.20;;;;;;;;;;1028009;28;20019;-76
2022/08/18 01:03:41;;;;;;;9.15;2.35;;;;;;;;;;1029035;28;20030;-76
2022/08/18 01:04:17;;;;;;;11.18;3.08;;;;;;;;;;1031456;28;20034;-76
2022/08/18 01:04:51;;;;;;;19.40;4.47;;;;;;;;;;1033226;28;20027;-76
2022/08/18 01:05:26;;;;;;;21.63;4.80;;;;;;;;;;1036560;28;20050;-76
2022/08/18 01:06:00;;;;;;;15.95;3.83;;;;;;;;;;1036513;28;20022;-76
2022/08/18 01:06:33;;;;;;;17.35;4.55;;;;;;;;;;1036638;28;20030;-76
2022/08/18 01:07:07;;;;;;;9.70;2.80;;;;;;;;;;1032171;28;20410;-76
2022/08/18 01:07:42;;;;;;;11.43;3.65;;;;;;;;;;1028224;28;20027;-76
2022/08/18 01:08:14;;;;;;;9.90;3.03;;;;;;;;;;1028118;28;20041;-76
2022/08/18 01:08:44;;;;;;;8.15;2.15;;;;;;;;;;1028269;28;20019;-76
2022/08/18 01:09:16;;;;;;;12.07;3.20;;;;;;;;;;1027251;28;20033;-76
2022/08/18 01:09:48;;;;;;;7.15;2.63;;;;;;;;;;1024413;29;20027;-76
2022/08/18 01:10:21;;;;;;;6.40;2.47;;;;;;;;;;1024012;29;20015;-76
2022/08/18 01:10:53;;;;;;;10.05;2.38;;;;;;;;;;1025048;28;20090;-76
2022/08/18 01:11:23;;;;;;;3.80;1.30;;;;;;;;;;1027651;28;20022;-76
2022/08/18 01:11:55;;;;;;;3.10;1.33;;;;;;;;;;1028418;28;20111;-76
2022/08/18 01:12:26;;;;;;;6.68;1.55;;;;;;;;;;1027799;28;20511;-76
2022/08/18 01:12:57;;;;;;;2.80;1.02;;;;;;;;;;1024661;28;20086;-76
2022/08/18 01:13:30;;;;;;;5.72;1.25;;;;;;;;;;1028586;28;20161;-76
2022/08/18 01:14:00;;;;;;;3.58;1.33;;;;;;;;;;1028331;28;20031;-76
2022/08/18 01:14:31;;;;;;;6.10;1.00;;;;;;;;;;1028591;28;20069;-76
2022/08/18 01:15:02;;;;;;;9.48;1.55;;;;;;;;;;1028451;28;20018;-76
2022/08/18 01:15:33;;;;;;;13.88;1.27;;;;;;;;;;1028612;28;20041;-76
2022/08/18 01:21:49;;;;;;;2.83;1.08;;;;;;;;;;1023989;29;20039;-76
2022/08/18 01:21:59;;;;;;;10.73;1.60;;;;;;;;;;1028590;28;20026;-76
2022/08/18 01:22:48;;;;;;;12.20;2.20;;;;;;;;;;1032267;28;20027;-76
2022/08/18 01:23:19;;;;;;;6.28;1.55;;;;;;;;;;1027996;28;20113;-76
2022/08/18 01:23:51;;;;;;;3.33;1.08;;;;;;;;;;1024353;29;20063;-76
2022/08/18 01:26:03;;;;;;;7.68;1.83;;;;;;;;;;1028070;28;20097;-76
2022/08/18 01:26:37;;;;;;;9.25;1.70;;;;;;;;;;1024024;29;20042;-76
2022/08/18 01:27:09;;;;;;;7.22;1.38;;;;;;;;;;1023932;29;20038;-76
2022/08/18 01:27:40;;;;;;;7.25;1.55;;;;;;;;;;1023329;29;20027;-76
2022/08/18 01:28:11;;;;;;;2.90;1.15;;;;;;;;;;1024160;28;20035;-76
2022/08/18 01:28:43;;;;;;;10.75;2.38;;;;;;;;;;1024023;29;20122;-76
2022/08/18 01:29:15;;;;;;;6.32;1.60;;;;;;;;;;1023963;29;20027;-76
2022/08/18 01:29:46;;;;;;;8.23;1.98;;;;;;;;;;1023583;29;20027;-76
2022/08/18 01:30:17;;;;;;;7.70;2.10;;;;;;;;;;1020259;29;20106;-76
2022/08/18 01:30:50;;;;;;;9.02;2.05;;;;;;;;;;1024192;29;20122;-76
2022/08/18 01:31:29;;;;;;;3.40;2.10;;;;;;;;;;1023132;28;20093;-76
2022/08/18 01:32:00;;;;;;;2.42;1.38;;;;;;;;;;1025817;28;20494;-75
2022/08/18 01:32:30;;;;;;;11.48;2.95;;;;;;;;;;1024060;28;20035;-76
2022/08/18 01:33:01;;;;;;;15.82;1.77;;;;;;;;;;1027932;28;20042;-76
2022/08/18 01:33:36;;;;;;;6.57;1.70;;;;;;;;;;1024187;28;20062;-76
2022/08/18 01:34:09;;;;;;;10.00;1.88;;;;;;;;;;1024804;28;20538;-76
2022/08/18 01:34:40;;;;;;;12.85;2.05;;;;;;;;;;1027088;28;20022;-76
2022/08/18 01:35:12;;;;;;;22.85;2.63;;;;;;;;;;1025250;28;20402;-76
2022/08/18 01:35:47;;;;;;;11.30;2.10;;;;;;;;;;1026001;28;21054;-76
2022/08/18 01:36:19;;;;;;;7.38;2.42;;;;;;;;;;1027898;28;20589;-76
2022/08/18 01:36:51;;;;;;;6.28;1.83;;;;;;;;;;1028358;28;20027;-76
2022/08/18 01:37:23;;;;;;;8.18;2.25;;;;;;;;;;1028417;28;20026;-76
2022/08/18 01:37:54;;;;;;;14.88;2.20;;;;;;;;;;1028203;28;20054;-76
2022/08/18 01:38:25;;;;;;;8.20;1.58;;;;;;;;;;1028012;28;20031;-76
2022/08/18 01:38:55;;;;;;;5.60;2.05;;;;;;;;;;1028107;28;20118;-76
2022/08/18 01:39:26;;;;;;;6.15;1.92;;;;;;;;;;1028207;28;20114;-76
2022/08/18 01:39:57;;;;;;;8.57;1.70;;;;;;;;;;1027851;28;20503;-76
2022/08/18 01:40:27;;;;;;;14.00;2.20;;;;;;;;;;1024271;28;20034;-76
2022/08/18 01:40:58;;;;;;;6.38;1.67;;;;;;;;;;1027913;28;20030;-76
2022/08/18 01:41:29;;;;;;;6.82;2.13;;;;;;;;;;1027804;28;20033;-76
2022/08/18 01:42:02;;;;;;;7.00;1.98;;;;;;;;;;1032332;28;20393;-76
2022/08/18 01:42:33;;;;;;;15.23;2.42;;;;;;;;;;1031868;28;20069;-76
2022/08/18 01:43:04;;;;;;;11.43;2.08;;;;;;;;;;1027954;28;20074;-76
2022/08/18 01:43:35;;;;;;;3.80;1.70;;;;;;;;;;1028205;28;20061;-76
2022/08/18 01:44:10;;;;;;;9.25;2.50;;;;;;;;;;1028077;28;20118;-76
2022/08/18 01:44:40;;;;;;;11.07;2.25;;;;;;;;;;1028895;28;20522;-76
2022/08/18 01:45:12;;;;;;;7.60;1.83;;;;;;;;;;1027968;28;20026;-76
2022/08/18 01:45:44;;;;;;;15.32;2.10;;;;;;;;;;1028311;28;20035;-76
2022/08/18 01:46:19;;;;;;;9.63;2.60;;;;;;;;;;1027717;28;20034;-76
2022/08/18 01:46:51;;;;;;;7.93;2.30;;;;;;;;;;1028207;28;20125;-76
2022/08/18 01:47:22;;;;;;;6.32;1.90;;;;;;;;;;1028092;28;20502;-76
2022/08/18 01:47:54;;;;;;;2.33;1.42;;;;;;;;;;1029306;28;20050;-76
2022/08/18 01:48:25;;;;;;;5.18;2.28;;;;;;;;;;1030445;28;20030;-76
2022/08/18 01:48:57;;;;;;;7.30;1.95;;;;;;;;;;1030261;28;20148;-76
2022/08/18 01:49:27;;;;;;;5.07;1.73;;;;;;;;;;1032408;28;20533;-76
2022/08/18 01:49:59;;;;;;;9.98;1.75;;;;;;;;;;1032357;28;20076;-76
2022/08/18 01:50:33;;;;;;;15.40;2.50;;;;;;;;;;1028013;28;20031;-76
2022/08/18 01:51:05;;;;;;;7.15;3.20;;;;;;;;;;1027399;28;20498;-76
2022/08/18 01:51:40;;;;;;;5.07;1.65;;;;;;;;;;1027989;28;20109;-76
2022/08/18 01:52:19;;;;;;;13.25;1.52;;;;;;;;;;1025125;28;20078;-76
2022/08/18 01:52:52;;;;;;;10.00;2.35;;;;;;;;;;1028303;28;20070;-76
2022/08/18 01:53:22;;;;;;;6.13;1.67;;;;;;;;;;1027919;28;20474;-76
2022/08/18 01:53:53;;;;;;;15.63;2.03;;;;;;;;;;1028283;28;20121;-76
2022/08/18 01:54:28;;;;;;;6.43;2.30;;;;;;;;;;1027940;28;20491;-76
2022/08/18 01:54:59;;;;;;;9.57;2.00;;;;;;;;;;1028850;28;20491;-76
2022/08/18 01:55:37;;;;;;;7.63;2.00;;;;;;;;;;1032436;28;20031;-76
2022/08/18 01:56:08;;;;;;;3.78;1.70;;;;;;;;;;1032226;28;20069;-76
2022/08/18 01:56:39;;;;;;;13.18;1.90;;;;;;;;;;1028035;28;20027;-76
2022/08/18 01:57:12;;;;;;;14.40;2.65;;;;;;;;;;1028040;28;20026;-76
2022/08/18 01:57:43;;;;;;;16.70;2.20;;;;;;;;;;1023950;29;20082;-76
2022/08/18 01:58:14;;;;;;;6.00;1.42;;;;;;;;;;1020502;29;20387;-76
2022/08/18 01:58:46;;;;;;;12.35;2.15;;;;;;;;;;1024277;29;20114;-76
2022/08/18 01:59:17;;;;;;;13.73;2.10;;;;;;;;;;1024515;28;20039;-76
2022/08/18 01:59:47;;;;;;;6.00;1.73;;;;;;;;;;1023431;28;20110;-76
2022/08/18 02:00:18;;;;;;;5.97;2.03;;;;;;;;;;1027278;28;20173;-76
2022/08/18 02:00:48;;;;;;;5.65;1.83;;;;;;;;;;1024189;29;20030;-76
2022/08/18 02:01:20;;;;;;;6.47;1.70;;;;;;;;;;1023375;28;20038;-76
2022/08/18 02:01:54;;;;;;;7.05;1.98;;;;;;;;;;1028137;28;20026;-76
2022/08/18 02:02:26;;;;;;;9.43;2.08;;;;;;;;;;1028766;28;20065;-76
2022/08/18 02:02:57;;;;;;;5.90;2.72;;;;;;;;;;1032449;28;20524;-76
2022/08/18 02:03:31;;;;;;;8.70;2.40;;;;;;;;;;1027957;28;20027;-76
2022/08/18 02:04:05;;;;;;;3.97;1.42;;;;;;;;;;1024050;29;20023;-76
2022/08/18 02:04:36;;;;;;;9.98;2.72;;;;;;;;;;1023982;29;20034;-76
2022/08/18 02:05:13;;;;;;;9.38;2.40;;;;;;;;;;1028308;28;20540;-76
2022/08/18 02:05:47;;;;;;;7.32;3.00;;;;;;;;;;1029030;28;20027;-76
2022/08/18 02:06:18;;;;;;;17.30;2.05;;;;;;;;;;1028942;28;20101;-76
2022/08/18 02:06:48;;;;;;;8.00;1.48;;;;;;;;;;1032452;28;20593;-76
2022/08/18 02:07:19;;;;;;;15.00;2.70;;;;;;;;;;1032806;28;20033;-76
2022/08/18 02:07:50;;;;;;;5.70;2.03;;;;;;;;;;1032506;28;20022;-76
2022/08/18 02:08:21;;;;;;;9.02;2.05;;;;;;;;;;1032185;28;20030;-76
2022/08/18 02:08:51;;;;;;;9.55;2.00;;;;;;;;;;1029209;28;20026;-76
2022/08/18 02:09:22;;;;;;;3.92;1.30;;;;;;;;;;1028269;28;20031;-76
2022/08/18 02:09:52;;;;;;;10.40;2.25;;;;;;;;;;1028529;28;20037;-76
2022/08/18 02:10:23;;;;;;;8.88;2.65;;;;;;;;;;1028240;28;20103;-76
2022/08/18 02:10:54;;;;;;;14.88;1.75;;;;;;;;;;1028497;28;20543;-76
2022/08/18 02:11:24;;;;;;;5.03;2.25;;;;;;;;;;1030741;28;20034;-76
2022/08/18 02:11:55;;;;;;;8.98;1.95;;;;;;;;;;1032239;28;20077;-76
2022/08/18 02:12:25;;;;;;;8.27;1.85;;;;;;;;;;1030570;28;20113;-76
2022/08/18 02:12:56;;;;;;;8.23;1.67;;;;;;;;;;1032188;28;20077;-75
2022/08/18 02:13:27;;;;;;;6.38;1.65;;;;;;;;;;1031666;28;20034;-76
2022/08/18 02:13:57;;;;;;;10.45;2.08;;;;;;;;;;1027415;28;20104;-76
2022/08/18 02:14:28;;;;;;;9.63;2.78;;;;;;;;;;1027909;28;20054;-76
2022/08/18 02:14:58;;;;;;;9.70;1.88;;;;;;;;;;1027767;28;20118;-76
2022/08/18 02:15:29;;;;;;;7.20;1.60;;;;;;;;;;1027667;28;20026;-76
2022/08/18 02:16:00;;;;;;;9.40;2.17;;;;;;;;;;1027379;28;20050;-76
2022/08/18 02:16:32;;;;;;;21.05;3.28;;;;;;;;;;1027821;28;20475;-76
2022/08/18 02:17:04;;;;;;;11.07;2.65;;;;;;;;;;1026027;28;20023;-76
2022/08/18 02:17:38;;;;;;;18.88;2.45;;;;;;;;;;1028412;28;20491;-76
2022/08/18 02:18:13;;;;;;;11.88;2.17;;;;;;;;;;1027397;28;20479;-76
2022/08/18 02:18:43;;;;;;;6.95;1.98;;;;;;;;;;1026720;28;20031;-76
2022/08/18 02:19:14;;;;;;;6.10;2.03;;;;;;;;;;1027845;28;20058;-76
2022/08/18 02:19:45;;;;;;;16.10;2.90;;;;;;;;;;1028637;28;20367;-76
2022/08/18 02:20:17;;;;;;;20.27;3.17;;;;;;;;;;1031860;28;20018;-76
2022/08/18 02:20:47;;;;;;;7.97;2.60;;;;;;;;;;1030270;28;20446;-76
2022/08/18 02:21:19;;;;;;;10.23;2.63;;;;;;;;;;1027784;28;20035;-76
2022/08/18 02:21:51;;;;;;;29.35;2.55;;;;;;;;;;1027603;28;20133;-76
2022/08/18 02:22:22;;;;;;;17.58;1.95;;;;;;;;;;1025570;28;20177;-76
2022/08/18 02:22:52;;;;;;;14.80;2.47;;;;;;;;;;1025982;28;20035;-76
2022/08/18 02:23:23;;;;;;;10.63;2.67;;;;;;;;;;1027296;28;20081;-76
2022/08/18 02:23:53;;;;;;;18.15;3.08;;;;;;;;;;1031245;28;20026;-76
2022/08/18 02:24:24;;;;;;;12.50;2.50;;;;;;;;;;1032056;28;20065;-76
2022/08/18 02:24:56;;;;;;;16.45;2.65;;;;;;;;;;1031339;28;20030;-76
2022/08/18 02:25:26;;;;;;;12.80;2.10;;;;;;;;;;1027671;28;20517;-76
2022/08/18 02:25:57;;;;;;;10.63;2.30;;;;;;;;;;1027617;28;20023;-76
2022/08/18 02:26:27;;;;;;;6.57;2.38;;;;;;;;;;1027860;28;20069;-76
2022/08/18 02:26:58;;;;;;;9.05;1.63;;;;;;;;;;1027530;28;20026;-76
2022/08/18 02:27:29;;;;;;;19.02;3.70;;;;;;;;;;1028054;28;20019;-76
2022/08/18 02:27:59;;;;;;;5.00;1.63;;;;;;;;;;1031864;28;20466;-76
2022/08/18 02:28:30;;;;;;;10.70;1.95;;;;;;;;;;1032149;28;20073;-76
2022/08/18 02:29:01;;;;;;;10.68;2.53;;;;;;;;;;1029275;28;20502;-76
2022/08/18 02:29:31;;;;;;;8.63;1.73;;;;;;;;;;1031059;28;20453;-76
2022/08/18 02:30:04;;;;;;;12.60;2.90;;;;;;;;;;1031440;28;20120;-76
2022/08/18 02:30:36;;;;;;;16.48;2.90;;;;;;;;;;1033299;28;20062;-76
2022/08/18 02:31:08;;;;;;;15.13;2.40;;;;;;;;;;1029544;28;20027;-76
2022/08/18 02:31:39;;;;;;;14.07;2.33;;;;;;;;;;1027254;28;20531;-76
2022/08/18 02:32:09;;;;;;;6.30;1.70;;;;;;;;;;1026586;28;20022;-76
2022/08/18 02:32:40;;;;;;;11.60;2.13;;;;;;;;;;1025842;28;20031;-76
2022/08/18 02:33:11;;;;;;;6.15;1.45;;;;;;;;;;1027805;28;20364;-76
2022/08/18 02:33:42;;;;;;;11.48;2.70;;;;;;;;;;1027971;28;20026;-76
2022/08/18 02:34:13;;;;;;;4.88;1.95;;;;;;;;;;1029406;28;20388;-76
2022/08/18 02:34:44;;;;;;;8.25;1.52;;;;;;;;;;1031634;28;20073;-76
2022/08/18 02:35:15;;;;;;;16.67;2.28;;;;;;;;;;1029331;28;20076;-76
2022/08/18 02:35:50;;;;;;;16.67;2.35;;;;;;;;;;1031284;28;20026;-76
2022/08/18 02:36:20;;;;;;;9.85;2.08;;;;;;;;;;1030430;28;20066;-76
2022/08/18 02:36:51;;;;;;;14.25;2.17;;;;;;;;;;1030789;28;20026;-76
2022/08/18 02:37:22;;;;;;;27.25;2.38;;;;;;;;;;1029663;28;20491;-76
2022/08/18 02:37:52;;;;;;;16.25;2.17;;;;;;;;;;1027588;28;20079;-76
2022/08/18 02:38:23;;;;;;;13.40;2.63;;;;;;;;;;1023988;28;20085;-76
2022/08/18 02:38:54;;;;;;;7.63;1.92;;;;;;;;;;1025648;28;20021;-76
2022/08/18 02:39:24;;;;;;;11.25;2.20;;;;;;;;;;1024777;28;20038;-76
2022/08/18 02:39:56;;;;;;;8.93;1.90;;;;;;;;;;1027716;28;20510;-76
2022/08/18 02:40:27;;;;;;;14.88;2.25;;;;;;;;;;1027955;28;20022;-76
2022/08/18 02:40:59;;;;;;;8.82;2.17;;;;;;;;;;1032055;28;20104;-76
2022/08/18 02:41:30;;;;;;;20.23;2.75;;;;;;;;;;1031946;28;20430;-76
2022/08/18 02:42:00;;;;;;;19.17;2.38;;;;;;;;;;1029335;28;20125;-75
2022/08/18 02:42:31;;;;;;;9.73;1.88;;;;;;;;;;1032137;28;20553;-76
2022/08/18 02:43:05;;;;;;;6.43;2.35;;;;;;;;;;1029949;28;20439;-76
2022/08/18 02:43:36;;;;;;;4.65;1.80;;;;;;;;;;1030475;28;20054;-76
2022/08/18 02:44:07;;;;;;;11.27;2.47;;;;;;;;;;1030616;28;20030;-76
2022/08/18 02:44:38;;;;;;;6.45;2.47;;;;;;;;;;1031990;28;20112;-76
2022/08/18 02:45:09;;;;;;;13.05;2.13;;;;;;;;;;1031963;28;20441;-76
2022/08/18 02:45:39;;;;;;;10.75;2.42;;;;;;;;;;1032033;28;20474;-76
2022/08/18 02:46:10;;;;;;;3.95;1.50;;;;;;;;;;1031856;28;20026;-76
2022/08/18 02:46:40;;;;;;;3.20;1.25;;;;;;;;;;1027617;28;20121;-76
2022/08/18 02:47:12;;;;;;;6.47;1.75;;;;;;;;;;1026686;28;20061;-76
2022/08/18 02:47:43;;;;;;;7.57;2.05;;;;;;;;;;1027681;28;20042;-76
2022/08/18 02:48:14;;;;;;;6.70;1.23;;;;;;;;;;1027792;28;20057;-76
2022/08/18 02:48:46;;;;;;;13.27;2.22;;;;;;;;;;1027559;28;20091;-76
2022/08/18 02:49:17;;;;;;;6.80;1.65;;;;;;;;;;1025737;28;20027;-76
2022/08/18 02:49:47;;;;;;;8.23;2.00;;;;;;;;;;1027850;28;20023;-76
2022/08/18 02:50:18;;;;;;;4.85;1.60;;;;;;;;;;1026967;28;20027;-76
2022/08/18 02:50:49;;;;;;;6.32;1.88;;;;;;;;;;1027801;28;20045;-76
2022/08/18 02:51:20;;;;;;;9.80;1.67;;;;;;;;;;1027416;28;20166;-76
2022/08/18 02:51:51;;;;;;;13.38;1.20;;;;;;;;;;1027597;28;20526;-76
2022/08/18 02:52:22;;;;;;;12.38;1.45;;;;;;;;;;1031823;28;20030;-76
2022/08/18 02:52:53;;;;;;;3.75;1.60;;;;;;;;;;1032108;28;20018;-76
2022/08/18 02:53:24;;;;;;;15.15;1.80;;;;;;;;;;1031884;28;20022;-76
2022/08/18 02:53:57;;;;;;;2.17;1.42;;;;;;;;;;1031987;28;20438;-76
2022/08/18 02:54:28;;;;;;;8.90;1.90;;;;;;;;;;1026182;28;20469;-76
2022/08/18 02:55:02;;;;;;;6.78;2.03;;;;;;;;;;1023124;28;20027;-76
2022/08/18 02:55:33;;;;;;;7.55;1.88;;;;;;;;;;1023441;29;20674;-76
2022/08/18 02:56:23;;;;;;;17.77;2.13;;;;;;;;;;1023816;28;20130;-76
2022/08/18 02:56:55;;;;;;;8.23;1.92;;;;;;;;;;1030160;28;20084;-76
2022/08/18 02:57:26;;;;;;;11.23;1.52;;;;;;;;;;1031823;28;20018;-76
2022/08/18 02:57:57;;;;;;;12.35;2.22;;;;;;;;;;1031744;28;20076;-76
2022/08/18 02:58:28;;;;;;;2.50;1.20;;;;;;;;;;1027670;28;20085;-76
2022/08/18 02:59:01;;;;;;;9.68;1.85;;;;;;;;;;1027471;28;20022;-76
2022/08/18 02:59:31;;;;;;;4.57;1.45;;;;;;;;;;1027799;28;20481;-76
2022/08/18 03:00:02;;;;;;;5.72;1.10;;;;;;;;;;1024004;28;20058;-76
2022/08/18 03:00:33;;;;;;;7.72;1.50;;;;;;;;;;1027468;28;20027;-76
2022/08/18 03:01:04;;;;;;;5.82;1.52;;;;;;;;;;1025391;28;20446;-76
2022/08/18 03:01:37;;;;;;;6.18;1.95;;;;;;;;;;1025428;28;20030;-76
2022/08/18 03:02:08;;;;;;;13.13;1.73;;;;;;;;;;1024508;28;20026;-76
2022/08/18 03:02:39;;;;;;;7.90;1.20;;;;;;;;;;1027581;28;20026;-76
2022/08/18 03:03:10;;;;;;;12.30;1.50;;;;;;;;;;1027609;28;20061;-76
2022/08/18 03:03:40;;;;;;;8.00;1.20;;;;;;;;;;1026295;28;20023;-76
2022/08/18 03:04:14;;;;;;;3.50;1.00;;;;;;;;;;1030921;28;20487;-76
2022/08/18 03:04:45;;;;;;;9.20;1.58;;;;;;;;;;1031604;28;20105;-76
2022/08/18 03:05:16;;;;;;;4.75;1.17;;;;;;;;;;1030975;28;20478;-76
2022/08/18 03:05:46;;;;;;;4.82;1.58;;;;;;;;;;1030151;28;20033;-76
2022/08/18 03:06:17;;;;;;;7.05;1.58;;;;;;;;;;1026963;28;20030;-76
2022/08/18 03:06:48;;;;;;;5.68;1.58;;;;;;;;;;1025216;28;20034;-76
2022/08/18 03:07:18;;;;;;;7.75;1.52;;;;;;;;;;1025407;28;20438;-76
2022/08/18 03:07:49;;;;;;;6.85;1.73;;;;;;;;;;1025795;28;20033;-76
2022/08/18 03:08:20;;;;;;;15.45;1.90;;;;;;;;;;1025915;28;20066;-76
2022/08/18 03:08:51;;;;;;;13.60;1.70;;;;;;;;;;1027270;28;20037;-76
2022/08/18 03:09:22;;;;;;;2.95;1.60;;;;;;;;;;1023124;29;20065;-76
2022/08/18 03:09:52;;;;;;;6.97;1.88;;;;;;;;;;1023654;28;20031;-75
2022/08/18 03:10:23;;;;;;;8.25;2.15;;;;;;;;;;1026979;28;20046;-76
2022/08/18 03:10:53;;;;;;;3.95;2.08;;;;;;;;;;1027466;28;20380;-76
2022/08/18 03:11:26;;;;;;;9.05;1.85;;;;;;;;;;1027274;28;20026;-76
2022/08/18 03:11:57;;;;;;;11.82;2.00;;;;;;;;;;1027476;28;20418;-76
2022/08/18 03:12:28;;;;;;;11.02;2.10;;;;;;;;;;1027721;28;20030;-76
2022/08/18 03:12:58;;;;;;;7.57;1.88;;;;;;;;;;1027976;28;20074;-76
2022/08/18 03:13:29;;;;;;;6.45;1.42;;;;;;;;;;1032012;28;20066;-76
2022/08/18 03:14:00;;;;;;;14.57;2.10;;;;;;;;;;1027271;28;20026;-76
2022/08/18 03:14:30;;;;;;;6.63;1.55;;;;;;;;;;1027742;28;20489;-76
2022/08/18 03:15:02;;;;;;;6.93;2.08;;;;;;;;;;1027617;28;20027;-76
2022/08/18 03:15:33;;;;;;;2.90;0.98;;;;;;;;;;1026167;28;20027;-76
2022/08/18 03:16:03;;;;;;;13.45;1.67;;;;;;;;;;1031750;28;20026;-75
2022/08/18 03:16:35;;;;;;;6.95;1.98;;;;;;;;;;1031941;28;20030;-76